createdAt,value
2022-12-17T15:25:00.695Z,102002.88
2022-12-17T15:27:27.105Z,102004.38
2022-12-17T15:29:53.588Z,102002.72
2022-12-17T15:32:21.716Z,102005.66
2022-12-17T15:34:48.773Z,102013.03
2022-12-17T15:37:19.757Z,102007.53
2022-12-17T15:39:48.888Z,102011.38
2022-12-17T15:42:16.624Z,102013.16
2022-12-17T15:44:43.076Z,102019.13
2022-12-17T15:47:09.533Z,102009.03
2022-12-17T15:49:35.940Z,102011.06
2022-12-17T15:52:02.461Z,102012.91
2022-12-17T15:54:28.877Z,102015.34
2022-12-17T15:56:55.618Z,102019.00
2022-12-17T15:59:23.854Z,102015.25
2022-12-17T16:01:50.399Z,102019.84
2022-12-17T16:04:21.662Z,102024.84
2022-12-17T16:06:51.445Z,102024.34
2022-12-17T16:09:17.899Z,102025.38
2022-12-17T16:11:44.329Z,102028.47
2022-12-17T16:14:10.828Z,102025.25
2022-12-17T16:16:38.570Z,102032.34
2022-12-17T16:19:04.943Z,102031.69
2022-12-17T16:21:31.367Z,102035.41
2022-12-17T16:23:57.777Z,102035.78
2022-12-17T16:26:26.117Z,102032.25
2022-12-17T16:28:53.076Z,102035.09
2022-12-17T16:31:19.603Z,102039.59
2022-12-17T16:33:47.385Z,102041.50
2022-12-17T16:36:15.782Z,102037.44
2022-12-17T16:38:44.305Z,102040.69
2022-12-17T16:41:11.209Z,102041.53
2022-12-17T16:43:37.805Z,102048.06
2022-12-17T16:46:09.108Z,102048.53
2022-12-17T16:48:39.475Z,102050.03
2022-12-17T16:51:21.075Z,102048.34
2022-12-17T16:53:52.680Z,102051.09
2022-12-17T16:56:20.759Z,102052.69
2022-12-17T16:58:47.760Z,102054.44
2022-12-17T17:01:18.602Z,102057.88
2022-12-17T17:03:45.195Z,102054.75
2022-12-17T17:06:11.712Z,102054.41
2022-12-17T17:08:40.177Z,102052.41
2022-12-17T17:11:08.828Z,102062.16
2022-12-17T17:13:35.397Z,102066.31
2022-12-17T17:16:01.928Z,102075.72
2022-12-17T17:18:28.382Z,102073.00
2022-12-17T17:20:54.833Z,102074.13
2022-12-17T17:23:21.388Z,102075.66
2022-12-17T17:25:58.213Z,102080.03
2022-12-17T17:28:25.181Z,102071.88
2022-12-17T17:30:58.492Z,102072.69
2022-12-17T17:33:29.090Z,102076.88
2022-12-17T17:36:00.921Z,102071.66
2022-12-17T17:38:30.298Z,102079.97
2022-12-17T17:40:58.107Z,102079.88
2022-12-17T17:43:24.683Z,102087.09
2022-12-17T17:45:51.140Z,102072.72
2022-12-17T17:48:17.552Z,102081.06
2022-12-17T17:50:43.961Z,102081.19
2022-12-17T17:53:10.420Z,102091.84
2022-12-17T17:55:36.890Z,102092.00
2022-12-17T17:58:04.645Z,102092.53
2022-12-17T18:00:31.118Z,102093.69
2022-12-17T18:02:57.756Z,102087.78
2022-12-17T18:05:24.424Z,102096.69
2022-12-17T18:07:50.853Z,102097.63
2022-12-17T18:10:17.501Z,102102.09
2022-12-17T18:12:43.918Z,102104.19
2022-12-17T18:15:15.396Z,102095.59
2022-12-17T18:17:42.952Z,102095.44
2022-12-17T18:20:10.648Z,102106.50
2022-12-17T18:22:37.504Z,102109.16
2022-12-17T18:25:04.525Z,102107.19
2022-12-17T18:27:30.932Z,102109.06
2022-12-17T18:29:57.638Z,102118.97
2022-12-17T18:32:25.423Z,102119.53
2022-12-17T18:34:51.934Z,102122.69
2022-12-17T18:37:18.453Z,102121.75
2022-12-17T18:39:44.875Z,102123.50
2022-12-17T18:42:11.311Z,102121.78
2022-12-17T18:44:39.211Z,102127.06
2022-12-17T18:47:05.849Z,102132.56
2022-12-17T18:49:33.611Z,102140.47
2022-12-17T18:52:00.081Z,102139.94
2022-12-17T18:54:28.673Z,102135.19
2022-12-17T18:57:02.857Z,102139.94
2022-12-17T18:59:30.502Z,102150.88
2022-12-17T19:01:57.911Z,102143.56
2022-12-17T19:04:25.431Z,102147.84
2022-12-17T19:06:54.181Z,102148.38
2022-12-17T19:09:22.553Z,102144.94
2022-12-17T19:11:50.058Z,102155.78
2022-12-17T19:14:16.757Z,102153.56
2022-12-17T19:16:44.530Z,102156.66
2022-12-17T19:19:12.404Z,102153.72
2022-12-17T19:21:38.872Z,102158.25
2022-12-17T19:24:11.293Z,102152.69
2022-12-17T19:26:37.684Z,102157.13
2022-12-17T19:29:04.507Z,102152.44
2022-12-17T19:31:32.541Z,102161.28
2022-12-17T19:34:01.321Z,102151.84
2022-12-17T19:36:29.363Z,102157.81
2022-12-17T19:38:58.433Z,102154.75
2022-12-17T19:41:27.751Z,102149.91
2022-12-17T19:43:55.943Z,102157.09
2022-12-17T19:46:23.333Z,102165.25
2022-12-17T19:48:50.678Z,102164.06
2022-12-17T19:51:19.328Z,102159.28
2022-12-17T19:53:46.999Z,102171.53
2022-12-17T19:56:17.138Z,102161.38
2022-12-17T19:58:46.774Z,102161.31
2022-12-17T20:01:14.954Z,102157.50
2022-12-17T20:03:44.088Z,102161.13
2022-12-17T20:06:11.927Z,102162.97
2022-12-17T20:08:39.183Z,102167.91
2022-12-17T20:11:08.247Z,102167.16
2022-12-17T20:13:34.687Z,102170.75
2022-12-17T20:16:04.591Z,102169.16
2022-12-17T20:18:31.502Z,102166.91
2022-12-17T20:21:02.476Z,102173.91
2022-12-17T20:23:29.316Z,102172.53
2022-12-17T20:26:02.639Z,102169.81
2022-12-17T20:28:29.211Z,102169.75
2022-12-17T20:30:58.073Z,102169.59
2022-12-17T20:33:26.256Z,102169.88
2022-12-17T20:35:52.656Z,102180.00
2022-12-17T20:38:19.606Z,102181.09
2022-12-17T20:40:46.090Z,102175.06
2022-12-17T20:43:12.554Z,102176.47
2022-12-17T20:45:39.139Z,102189.09
2022-12-17T20:48:06.094Z,102191.34
2022-12-17T20:50:33.878Z,102197.75
2022-12-17T20:53:00.321Z,102207.50
2022-12-17T20:55:31.144Z,102199.88
2022-12-17T20:57:57.936Z,102205.63
2022-12-17T21:00:24.357Z,102206.22
2022-12-17T21:02:50.897Z,102216.75
2022-12-17T21:05:17.582Z,102214.41
2022-12-17T21:07:45.511Z,102217.78
2022-12-17T21:10:12.321Z,102216.03
2022-12-17T21:12:38.745Z,102222.22
2022-12-17T21:15:06.291Z,102217.78
2022-12-17T21:17:32.904Z,102221.13
2022-12-17T21:20:02.976Z,102219.16
2022-12-17T21:22:32.695Z,102217.72
2022-12-17T21:25:00.525Z,102222.84
2022-12-17T21:27:26.936Z,102225.78
2022-12-17T21:29:54.636Z,102225.13
2022-12-17T21:32:21.088Z,102227.44
2022-12-17T21:34:47.524Z,102226.19
2022-12-17T21:37:14.199Z,102229.69
2022-12-17T21:39:40.599Z,102227.19
2022-12-17T21:42:08.487Z,102225.06
2022-12-17T21:44:35.174Z,102234.28
2022-12-17T21:47:01.602Z,102237.03
2022-12-17T21:49:28.043Z,102242.44
2022-12-17T21:51:55.598Z,102238.22
2022-12-17T21:54:22.021Z,102248.34
2022-12-17T21:56:48.423Z,102245.94
2022-12-17T21:59:16.341Z,102247.63
2022-12-17T22:01:42.955Z,102245.34
2022-12-17T22:04:09.506Z,102237.03
2022-12-17T22:06:39.666Z,102250.00
2022-12-17T22:09:18.694Z,102246.25
2022-12-17T22:11:54.822Z,102251.00
2022-12-17T22:14:22.566Z,102258.75
2022-12-17T22:16:49.676Z,102254.00
2022-12-17T22:19:18.869Z,102253.50
2022-12-17T22:21:50.015Z,102255.63
2022-12-17T22:24:18.617Z,102261.53
2022-12-17T22:26:45.754Z,102260.69
2022-12-17T22:29:12.240Z,102270.75
2022-12-17T22:31:39.971Z,102256.34
2022-12-17T22:34:48.818Z,102265.91
2022-12-17T22:39:23.948Z,102263.13
2022-12-17T22:43:23.870Z,102278.25
2022-12-17T22:44:35.922Z,102268.38
2022-12-17T22:45:15.994Z,102263.19
2022-12-17T22:47:44.315Z,102268.63
2022-12-17T22:50:10.863Z,102266.16
2022-12-17T22:52:37.924Z,102272.63
2022-12-17T22:55:05.846Z,102266.34
2022-12-17T22:57:37.776Z,102263.28
2022-12-17T23:00:08.308Z,102269.41
2022-12-17T23:02:34.740Z,102268.56
2022-12-17T23:05:02.519Z,102272.09
2022-12-17T23:07:31.899Z,102265.72
2022-12-17T23:09:58.641Z,102270.75
2022-12-17T23:12:25.071Z,102263.28
2022-12-17T23:14:51.512Z,102255.84
2022-12-17T23:17:17.943Z,102265.28
2022-12-17T23:19:44.323Z,102262.63
2022-12-17T23:22:12.110Z,102259.88
2022-12-17T23:24:38.706Z,102258.03
2022-12-17T23:27:05.124Z,102261.94
2022-12-17T23:29:31.546Z,102267.50
2022-12-17T23:31:57.956Z,102278.22
2022-12-17T23:34:24.376Z,102272.28
2022-12-17T23:36:50.805Z,102277.69
2022-12-17T23:39:18.647Z,102278.44
2022-12-17T23:41:45.107Z,102269.47
2022-12-17T23:44:11.647Z,102266.19
2022-12-17T23:46:38.123Z,102266.06
2022-12-17T23:49:05.552Z,102261.94
2022-12-17T23:51:32.736Z,102263.84
2022-12-17T23:53:59.185Z,102259.81
2022-12-17T23:56:27.890Z,102266.63
2022-12-17T23:58:56.675Z,102271.69
